Time;durP1;ratioP1;P1;durP2;ratioP2;P2;SDS_P1;SDS_P2;PMS_P1;PMS_P2;Temp;Humidity;BMP_temperature;BMP_pressure;BME280_temperature;BME280_humidity;BME280_pressure;Samples;Min_cycle;Max_cycle;Signal;HPM_P1;HPM_P2
2022/01/08 00:01:11;;;;;;;5.65;2.40;;;0.30;98.00;;;;;;5035795;28;20029;-68
2022/01/08 00:03:38;;;;;;;6.05;2.60;;;0.40;98.00;;;;;;5030277;28;20022;-70
2022/01/08 00:06:04;;;;;;;5.70;2.10;;;0.40;98.00;;;;;;5034854;28;20021;-71
2022/01/08 00:08:30;;;;;;;4.38;2.35;;;0.60;98.00;;;;;;5036286;28;20079;-71
2022/01/08 00:10:56;;;;;;;4.25;2.20;;;0.80;98.00;;;;;;5037087;28;20046;-70
2022/01/08 00:13:22;;;;;;;4.20;2.10;;;1.00;97.40;;;;;;5019763;28;20037;-70
2022/01/08 00:15:47;;;;;;;4.78;2.13;;;1.00;97.10;;;;;;5019758;28;20044;-71
2022/01/08 00:18:14;;;;;;;3.95;1.98;;;0.90;97.40;;;;;;5036842;28;20029;-70
2022/01/08 00:20:39;;;;;;;5.25;2.85;;;0.90;97.60;;;;;;5033710;28;20430;-70
2022/01/08 00:23:05;;;;;;;5.00;2.63;;;1.00;97.80;;;;;;5014226;28;20065;-70
2022/01/08 00:25:31;;;;;;;5.40;2.30;;;1.10;97.40;;;;;;5018078;28;20029;-69
2022/01/08 00:27:56;;;;;;;8.32;3.03;;;1.10;97.20;;;;;;5019710;28;20030;-71
2022/01/08 00:30:22;;;;;;;4.40;2.13;;;1.10;97.20;;;;;;5036076;28;20326;-70
2022/01/08 00:32:48;;;;;;;5.97;2.53;;;1.10;97.30;;;;;;5035664;28;20087;-70
2022/01/08 00:35:14;;;;;;;5.85;2.20;;;1.20;96.70;;;;;;5036403;28;20057;-70
2022/01/08 00:37:40;;;;;;;6.82;2.50;;;1.30;96.50;;;;;;5035228;28;20029;-69
2022/01/08 00:40:08;;;;;;;6.25;2.40;;;1.30;96.50;;;;;;5035418;28;20025;-70
2022/01/08 00:42:34;;;;;;;4.75;2.08;;;1.40;96.20;;;;;;5036933;28;20025;-70
2022/01/08 00:45:00;;;;;;;4.72;2.55;;;1.50;96.00;;;;;;5035987;28;20029;-69
2022/01/08 00:47:25;;;;;;;4.78;2.10;;;1.60;95.60;;;;;;5017684;28;20426;-70
2022/01/08 00:49:51;;;;;;;6.15;2.22;;;1.60;95.60;;;;;;5036522;28;20029;-70
2022/01/08 00:52:20;;;;;;;4.68;2.30;;;1.60;95.60;;;;;;5036289;28;20109;-70
2022/01/08 00:54:46;;;;;;;3.80;2.20;;;1.70;95.50;;;;;;5036502;28;20496;-70
2022/01/08 00:57:11;;;;;;;6.30;2.10;;;1.70;95.30;;;;;;5035374;28;20033;-70
2022/01/08 00:59:37;;;;;;;5.53;2.40;;;1.80;95.10;;;;;;5034723;28;20049;-70
2022/01/08 01:02:03;;;;;;;5.85;2.38;;;1.80;95.20;;;;;;5035311;28;20466;-70
2022/01/08 01:04:29;;;;;;;4.57;2.13;;;1.80;95.20;;;;;;5036358;28;20033;-70
2022/01/08 01:06:55;;;;;;;7.13;2.58;;;1.80;95.40;;;;;;5035550;28;20430;-70
2022/01/08 01:09:21;;;;;;;6.40;2.45;;;1.80;95.50;;;;;;5036268;28;20036;-70
2022/01/08 01:11:46;;;;;;;6.07;2.22;;;1.80;95.60;;;;;;5018650;28;20303;-69
2022/01/08 01:14:14;;;;;;;5.85;2.78;;;1.80;95.70;;;;;;5035367;28;20373;-69
2022/01/08 01:16:43;;;;;;;7.93;2.80;;;1.80;95.60;;;;;;5034608;28;20052;-70
2022/01/08 01:19:08;;;;;;;7.88;3.78;;;1.80;95.70;;;;;;5034699;28;20031;-71
2022/01/08 01:21:34;;;;;;;8.10;2.80;;;1.80;95.70;;;;;;5017883;28;20140;-70
2022/01/08 01:24:07;;;;;;;6.53;2.30;;;1.90;95.50;;;;;;5035684;28;20032;-70
2022/01/08 01:26:34;;;;;;;4.63;2.33;;;1.90;95.40;;;;;;5028979;28;20104;-70
2022/01/08 01:29:26;;;;;;;4.78;2.38;;;1.90;95.50;;;;;;5017343;28;20025;-69
2022/01/08 01:47:58;;;;;;;4.60;2.55;;;1.40;98.00;;;;;;5028304;28;20040;-71
2022/01/08 01:50:24;;;;;;;6.97;2.67;;;1.50;98.00;;;;;;5035692;28;20037;-71
2022/01/08 01:52:49;;;;;;;6.35;2.92;;;1.50;98.00;;;;;;5034281;28;20048;-71
2022/01/08 01:55:16;;;;;;;5.80;3.00;;;1.50;98.00;;;;;;5035399;28;20091;-70
2022/01/08 01:57:44;;;;;;;5.18;2.70;;;1.50;98.00;;;;;;5035264;28;20352;-69
2022/01/08 02:00:10;;;;;;;6.60;2.70;;;1.50;98.00;;;;;;5032324;28;20030;-70
2022/01/08 02:02:36;;;;;;;6.95;2.78;;;1.50;98.00;;;;;;5033681;28;20406;-71
2022/01/08 02:05:04;;;;;;;7.80;3.17;;;1.50;98.00;;;;;;5034270;28;20040;-70
2022/01/08 02:07:30;;;;;;;5.95;2.78;;;1.50;98.00;;;;;;5034745;28;20034;-70
2022/01/08 02:09:56;;;;;;;5.45;2.75;;;1.50;98.00;;;;;;5035425;28;20045;-71
2022/01/08 02:12:22;;;;;;;6.93;3.00;;;1.60;98.00;;;;;;5014934;28;20080;-71
2022/01/08 02:14:49;;;;;;;8.73;3.95;;;1.60;97.50;;;;;;5034196;28;20025;-71
2022/01/08 02:17:15;;;;;;;6.25;2.88;;;1.70;97.50;;;;;;5033349;28;20406;-70
2022/01/08 02:19:41;;;;;;;6.00;3.03;;;1.80;96.90;;;;;;5032108;28;20025;-71
2022/01/08 02:22:10;;;;;;;5.75;2.90;;;1.80;97.10;;;;;;5029387;28;20037;-70
2022/01/08 02:24:36;;;;;;;6.05;3.25;;;1.80;96.90;;;;;;5005985;28;20053;-70
2022/01/08 02:27:02;;;;;;;7.90;3.38;;;1.70;97.10;;;;;;5014472;28;20062;-70
2022/01/08 02:29:28;;;;;;;7.45;3.15;;;1.70;97.00;;;;;;5015544;28;20026;-69
2022/01/08 02:32:09;;;;;;;7.05;3.30;;;1.70;97.20;;;;;;5029344;28;20183;-70
2022/01/08 02:34:37;;;;;;;7.90;2.97;;;1.80;96.90;;;;;;5028027;28;20049;-70
2022/01/08 02:37:15;;;;;;;4.45;2.63;;;1.80;97.00;;;;;;5014212;28;20049;-69
2022/01/08 02:39:43;;;;;;;6.07;2.90;;;1.80;97.20;;;;;;5012993;28;20026;-70
2022/01/08 02:42:12;;;;;;;6.28;3.17;;;1.80;97.70;;;;;;5030091;28;20317;-70
2022/01/08 02:44:40;;;;;;;5.47;3.00;;;1.80;97.90;;;;;;5015120;28;20434;-70
2022/01/08 02:47:07;;;;;;;8.13;2.78;;;1.80;98.00;;;;;;5029018;28;20049;-69
2022/01/08 02:49:34;;;;;;;5.53;3.00;;;1.70;98.00;;;;;;5029755;28;20029;-69
2022/01/08 02:52:00;;;;;;;4.82;2.90;;;1.70;98.00;;;;;;5014871;28;20022;-69
2022/01/08 02:54:26;;;;;;;8.07;3.08;;;1.60;98.00;;;;;;5029779;28;20374;-69
2022/01/08 02:56:52;;;;;;;6.57;2.70;;;1.60;98.00;;;;;;5030656;28;20025;-69
2022/01/08 02:59:18;;;;;;;5.32;2.80;;;1.50;98.00;;;;;;5014329;28;20026;-71
2022/01/08 03:01:45;;;;;;;6.63;2.97;;;1.50;98.00;;;;;;5029959;28;20037;-71
2022/01/08 03:04:11;;;;;;;5.63;2.90;;;1.50;98.00;;;;;;5012575;28;20048;-71
2022/01/08 03:06:37;;;;;;;5.60;3.13;;;1.60;98.00;;;;;;5015234;28;20025;-71
2022/01/08 03:09:03;;;;;;;5.03;2.53;;;1.60;98.00;;;;;;5015340;28;20037;-71
2022/01/08 03:11:29;;;;;;;9.30;3.17;;;1.70;98.00;;;;;;5015118;28;20041;-71
2022/01/08 03:13:55;;;;;;;4.35;2.35;;;1.90;98.00;;;;;;5013109;28;20062;-71
2022/01/08 03:16:21;;;;;;;4.63;2.50;;;1.80;98.00;;;;;;5014057;28;20034;-70
2022/01/08 03:18:48;;;;;;;5.55;2.38;;;1.90;98.00;;;;;;5013055;28;20030;-72
2022/01/08 03:21:17;;;;;;;4.25;2.05;;;1.90;98.00;;;;;;5025857;28;20050;-71
2022/01/08 03:23:53;;;;;;;4.10;2.13;;;2.00;98.00;;;;;;5018159;28;20406;-71
2022/01/08 03:26:21;;;;;;;3.80;2.08;;;2.00;98.00;;;;;;5018435;28;20029;-71
2022/01/08 03:28:47;;;;;;;3.35;1.88;;;2.10;97.70;;;;;;5024012;28;20369;-70
2022/01/08 03:31:15;;;;;;;3.40;1.98;;;2.10;97.80;;;;;;5018281;28;20029;-71
2022/01/08 03:33:42;;;;;;;3.20;1.60;;;2.10;97.50;;;;;;5031282;28;20104;-72
2022/01/08 03:36:08;;;;;;;2.63;1.42;;;2.30;96.80;;;;;;5033182;28;20021;-70
2022/01/08 03:38:34;;;;;;;3.67;1.70;;;2.40;96.10;;;;;;5017215;28;20026;-71
2022/01/08 03:41:00;;;;;;;3.10;1.50;;;2.50;95.80;;;;;;5034037;28;20021;-72
2022/01/08 03:43:26;;;;;;;2.60;1.33;;;2.50;95.70;;;;;;5017410;28;20052;-71
2022/01/08 03:45:52;;;;;;;2.60;1.40;;;2.50;95.60;;;;;;5010908;28;20026;-70
2022/01/08 03:51:03;;;;;;;2.25;1.45;;;2.50;96.00;;;;;;5018821;28;20097;-71
2022/01/08 03:53:29;;;;;;;2.72;1.58;;;2.50;95.80;;;;;;5032649;28;20026;-70
2022/01/08 03:56:02;;;;;;;2.40;1.30;;;2.50;95.80;;;;;;5033099;28;20386;-71
2022/01/08 03:58:28;;;;;;;2.10;1.35;;;2.60;95.50;;;;;;5017474;28;20120;-71
2022/01/08 04:00:54;;;;;;;1.83;1.20;;;2.60;95.40;;;;;;5017372;28;20458;-69
2022/01/08 04:03:20;;;;;;;2.05;1.20;;;2.60;95.70;;;;;;5017030;28;20026;-70
2022/01/08 04:05:48;;;;;;;1.95;1.15;;;2.60;95.10;;;;;;5017463;28;20118;-69
2022/01/08 04:08:16;;;;;;;1.98;1.33;;;2.60;94.70;;;;;;5018020;28;20068;-70
2022/01/08 04:10:42;;;;;;;2.70;1.20;;;2.60;94.70;;;;;;5017809;28;20034;-71
2022/01/08 04:13:12;;;;;;;3.42;1.30;;;2.60;94.80;;;;;;5033595;28;20079;-71
2022/01/08 04:15:41;;;;;;;1.80;1.20;;;2.50;94.90;;;;;;5018220;28;20107;-70
2022/01/08 04:18:08;;;;;;;2.03;1.10;;;2.60;94.70;;;;;;5016921;28;20030;-70
2022/01/08 04:20:47;;;;;;;1.77;1.10;;;2.50;94.60;;;;;;5017933;28;20017;-70
2022/01/08 04:23:14;;;;;;;1.77;1.13;;;2.50;94.70;;;;;;5019558;28;20037;-71
2022/01/08 04:25:40;;;;;;;2.08;1.20;;;2.40;94.80;;;;;;5019467;28;20109;-71
2022/01/08 04:28:06;;;;;;;2.38;1.25;;;2.50;94.80;;;;;;5037684;28;20156;-71
2022/01/08 04:30:35;;;;;;;1.95;1.20;;;2.50;94.90;;;;;;5021841;28;20103;-71
2022/01/08 04:33:01;;;;;;;2.63;1.10;;;2.60;94.90;;;;;;5035094;28;20112;-71
2022/01/08 04:35:27;;;;;;;1.83;1.00;;;2.60;94.90;;;;;;5037469;28;20462;-71
2022/01/08 04:37:52;;;;;;;2.45;1.10;;;2.60;95.10;;;;;;5036992;28;20030;-71
2022/01/08 04:40:18;;;;;;;2.40;1.75;;;2.60;95.40;;;;;;5037113;28;20026;-70
2022/01/08 04:42:43;;;;;;;2.83;1.10;;;2.50;95.70;;;;;;5036029;28;20061;-71
2022/01/08 04:45:12;;;;;;;7.50;1.40;;;2.50;95.90;;;;;;5037004;28;20370;-70
2022/01/08 04:47:39;;;;;;;2.45;1.20;;;2.50;96.40;;;;;;5019249;28;20026;-71
2022/01/08 04:50:05;;;;;;;4.32;1.10;;;2.30;97.50;;;;;;5037340;28;20377;-70
2022/01/08 04:52:31;;;;;;;2.75;1.40;;;2.10;98.00;;;;;;5037837;28;20040;-70
2022/01/08 04:54:56;;;;;;;2.72;1.40;;;2.00;98.00;;;;;;5036523;28;20030;-71
2022/01/08 04:57:24;;;;;;;1.30;0.93;;;1.90;98.00;;;;;;5037343;28;20049;-70
2022/01/08 04:59:53;;;;;;;3.67;1.80;;;1.90;98.00;;;;;;5030001;28;20040;-71
2022/01/08 05:02:18;;;;;;;3.13;1.70;;;2.10;98.00;;;;;;5035454;28;20056;-71
2022/01/08 05:04:44;;;;;;;4.32;1.63;;;2.20;98.00;;;;;;5036514;28;20029;-70
2022/01/08 05:07:10;;;;;;;1.98;1.08;;;2.30;97.90;;;;;;5018766;28;20072;-70
2022/01/08 05:09:35;;;;;;;1.90;1.25;;;2.30;97.90;;;;;;5034810;28;20028;-71
2022/01/08 05:12:01;;;;;;;2.22;1.27;;;2.30;98.00;;;;;;5036971;28;20092;-70
2022/01/08 05:14:27;;;;;;;2.17;1.33;;;2.30;98.00;;;;;;5034622;28;20021;-71
2022/01/08 05:16:58;;;;;;;1.88;1.17;;;2.20;98.00;;;;;;5036804;28;20470;-71
2022/01/08 05:19:36;;;;;;;4.72;1.60;;;2.20;98.00;;;;;;5035330;28;20045;-70
2022/01/08 05:22:05;;;;;;;4.63;1.30;;;2.10;98.00;;;;;;5036669;28;20087;-71
2022/01/08 05:24:30;;;;;;;2.47;1.23;;;2.10;98.00;;;;;;5034950;28;20030;-70
2022/01/08 05:26:59;;;;;;;2.42;1.20;;;2.00;98.00;;;;;;5037075;28;20466;-70
2022/01/08 05:29:24;;;;;;;1.77;1.15;;;2.00;98.00;;;;;;5035758;28;20025;-71
2022/01/08 05:31:50;;;;;;;2.13;1.23;;;1.90;98.00;;;;;;5035953;28;20018;-71
2022/01/08 05:34:16;;;;;;;2.40;1.40;;;1.80;98.00;;;;;;5035263;28;20078;-71
2022/01/08 05:36:41;;;;;;;2.63;1.50;;;1.70;98.00;;;;;;5036441;28;20025;-70
2022/01/08 05:39:07;;;;;;;2.85;1.20;;;1.70;98.00;;;;;;5034762;28;20449;-70
2022/01/08 05:41:34;;;;;;;3.53;1.70;;;1.60;98.00;;;;;;5031577;28;20030;-69
2022/01/08 05:44:04;;;;;;;2.35;1.27;;;1.50;98.00;;;;;;5025153;28;20415;-69
2022/01/08 05:46:30;;;;;;;2.42;1.30;;;1.50;98.00;;;;;;5026728;28;20089;-69
2022/01/08 05:49:02;;;;;;;3.58;1.80;;;1.50;98.00;;;;;;5028142;28;20442;-70
2022/01/08 05:51:27;;;;;;;2.20;1.27;;;1.40;98.00;;;;;;5036226;28;20303;-68
2022/01/08 05:53:53;;;;;;;2.38;1.30;;;1.30;98.00;;;;;;5035645;28;20047;-69
2022/01/08 05:56:21;;;;;;;3.72;1.40;;;1.30;98.00;;;;;;5036150;28;20108;-70
2022/01/08 05:58:47;;;;;;;4.10;1.30;;;1.30;98.00;;;;;;5034204;28;20032;-71
2022/01/08 06:01:13;;;;;;;2.00;1.25;;;1.20;98.00;;;;;;5034497;28;20322;-70
2022/01/08 06:03:38;;;;;;;1.85;1.23;;;1.20;98.00;;;;;;5016984;28;20026;-70
2022/01/08 06:06:06;;;;;;;2.83;1.50;;;1.10;98.00;;;;;;5036174;28;20025;-70
2022/01/08 06:08:32;;;;;;;2.40;1.30;;;1.00;97.90;;;;;;5033616;28;20120;-70
2022/01/08 06:10:58;;;;;;;2.40;1.38;;;1.00;98.00;;;;;;5035757;28;20385;-69
2022/01/08 06:13:23;;;;;;;2.00;1.40;;;0.90;98.00;;;;;;5034837;28;20021;-70
2022/01/08 06:15:49;;;;;;;2.17;1.50;;;0.90;98.00;;;;;;5035561;28;20120;-70
2022/01/08 06:18:16;;;;;;;1.88;1.10;;;0.90;98.00;;;;;;5034121;28;20072;-69
2022/01/08 06:20:42;;;;;;;2.67;1.70;;;0.90;98.00;;;;;;5033748;28;20037;-69
2022/01/08 06:23:07;;;;;;;2.50;1.50;;;0.80;98.00;;;;;;5034887;28;20044;-69
2022/01/08 06:25:34;;;;;;;2.30;1.42;;;0.80;98.00;;;;;;5035362;28;20029;-69
2022/01/08 06:28:02;;;;;;;4.00;1.92;;;0.70;98.00;;;;;;5034297;28;20029;-70
2022/01/08 06:30:28;;;;;;;5.07;2.45;;;0.70;98.00;;;;;;5033549;28;20087;-69
2022/01/08 06:32:56;;;;;;;2.40;1.50;;;0.60;97.70;;;;;;5034172;28;20037;-70
2022/01/08 06:35:22;;;;;;;4.07;2.20;;;0.60;97.90;;;;;;5034083;28;20061;-70
2022/01/08 06:37:47;;;;;;;3.65;1.92;;;0.60;97.80;;;;;;5035501;28;20438;-70
2022/01/08 06:40:15;;;;;;;3.70;1.80;;;0.60;97.70;;;;;;5035106;28;20029;-70
2022/01/08 06:42:41;;;;;;;4.88;2.00;;;0.50;97.90;;;;;;5023883;28;20025;-70
2022/01/08 06:45:07;;;;;;;5.70;3.55;;;0.50;97.00;;;;;;5035262;28;20112;-70
2022/01/08 06:47:33;;;;;;;5.60;3.30;;;0.50;96.70;;;;;;5033067;28;20021;-70
2022/01/08 06:49:59;;;;;;;6.05;3.60;;;0.40;96.00;;;;;;5017214;28;20029;-70
2022/01/08 06:52:25;;;;;;;8.20;4.32;;;0.40;95.90;;;;;;5035582;28;20436;-70
2022/01/08 06:54:50;;;;;;;5.53;2.92;;;0.30;95.70;;;;;;5033825;28;20026;-70
2022/01/08 06:57:16;;;;;;;3.78;2.25;;;0.30;95.30;;;;;;5034762;28;20025;-69
2022/01/08 06:59:42;;;;;;;6.85;2.72;;;0.20;95.50;;;;;;5034966;28;20017;-69
2022/01/08 07:02:07;;;;;;;7.50;3.72;;;0.10;94.70;;;;;;5033038;28;20025;-69
2022/01/08 07:04:33;;;;;;;5.30;3.30;;;0.00;93.80;;;;;;5015830;28;20029;-70
2022/01/08 07:06:59;;;;;;;4.60;2.90;;;0.00;93.70;;;;;;5035157;28;20441;-70
2022/01/08 07:09:25;;;;;;;6.65;3.60;;;0.00;94.30;;;;;;5033822;28;20541;-70
2022/01/08 07:11:50;;;;;;;6.35;4.45;;;-0.10;93.80;;;;;;5021851;28;20029;-70
2022/01/08 07:14:16;;;;;;;13.63;8.02;;;-0.10;93.80;;;;;;5024446;28;20445;-69
2022/01/08 07:16:42;;;;;;;10.90;5.75;;;-0.10;93.60;;;;;;5034816;28;20032;-70
2022/01/08 07:19:07;;;;;;;8.65;5.65;;;-0.10;93.90;;;;;;5032385;28;20040;-71
2022/01/08 07:21:33;;;;;;;7.05;4.72;;;-0.10;94.00;;;;;;5033365;28;20053;-70
2022/01/08 07:23:59;;;;;;;6.28;3.33;;;-0.10;95.40;;;;;;5035257;28;20025;-69
2022/01/08 07:26:24;;;;;;;5.55;3.58;;;-0.10;96.00;;;;;;5034745;28;20021;-70
2022/01/08 07:28:50;;;;;;;7.22;3.90;;;-0.10;96.40;;;;;;5033844;28;20038;-70
2022/01/08 07:31:15;;;;;;;7.18;4.10;;;-0.10;96.30;;;;;;5033722;28;20319;-69
2022/01/08 07:33:49;;;;;;;5.78;3.72;;;-0.10;97.10;;;;;;5033693;28;20406;-69
2022/01/08 07:36:16;;;;;;;8.20;3.40;;;0.00;97.20;;;;;;5034796;28;20040;-70
2022/01/08 07:38:41;;;;;;;9.18;6.70;;;0.00;97.50;;;;;;5034356;28;20092;-69
2022/01/08 07:41:07;;;;;;;9.10;4.82;;;0.00;97.30;;;;;;5034962;28;20029;-70
2022/01/08 07:43:33;;;;;;;6.60;4.03;;;0.00;97.60;;;;;;5034879;28;20397;-69
2022/01/08 07:45:58;;;;;;;8.50;5.07;;;0.00;98.00;;;;;;5034538;28;20079;-70
2022/01/08 07:48:24;;;;;;;10.75;6.90;;;0.00;98.00;;;;;;5014137;28;20389;-71
2022/01/08 07:50:50;;;;;;;28.35;9.60;;;0.00;98.00;;;;;;5034767;28;20021;-70
2022/01/08 07:53:15;;;;;;;9.80;6.10;;;0.00;98.00;;;;;;5034903;28;20315;-70
2022/01/08 07:55:41;;;;;;;10.10;5.57;;;0.00;98.00;;;;;;5034806;28;20088;-70
2022/01/08 07:58:07;;;;;;;13.48;5.18;;;0.00;98.00;;;;;;5034733;28;20029;-70
2022/01/08 08:00:35;;;;;;;9.05;5.90;;;0.10;98.00;;;;;;5033776;28;20018;-69
2022/01/08 08:03:00;;;;;;;13.00;7.78;;;0.10;98.00;;;;;;5033216;28;20025;-70
2022/01/08 08:05:31;;;;;;;21.27;8.68;;;0.10;98.00;;;;;;5033781;28;20024;-70
2022/01/08 08:07:56;;;;;;;16.67;8.07;;;0.10;98.00;;;;;;5038553;28;20030;-69
2022/01/08 08:10:27;;;;;;;7.68;4.65;;;0.10;98.00;;;;;;5038186;28;20036;-70
2022/01/08 08:12:53;;;;;;;5.68;3.45;;;0.10;98.00;;;;;;5037216;28;20022;-69
2022/01/08 08:15:20;;;;;;;7.25;3.88;;;0.10;98.00;;;;;;5037517;28;20044;-69
2022/01/08 08:17:46;;;;;;;8.35;4.28;;;0.10;98.00;;;;;;5037019;28;20025;-69
2022/01/08 08:20:14;;;;;;;10.10;5.00;;;0.10;98.00;;;;;;5036461;28;20124;-69
2022/01/08 08:22:40;;;;;;;6.53;3.42;;;0.10;98.00;;;;;;5020623;28;20041;-69
2022/01/08 08:25:08;;;;;;;11.57;6.68;;;0.10;98.00;;;;;;5036411;28;20033;-71
2022/01/08 08:27:34;;;;;;;12.70;6.95;;;0.10;98.00;;;;;;5020039;28;20064;-69
2022/01/08 08:29:59;;;;;;;10.43;6.00;;;0.10;98.00;;;;;;5035393;28;20057;-69
2022/01/08 08:32:28;;;;;;;10.38;6.60;;;0.20;98.00;;;;;;5034773;28;20084;-70
2022/01/08 08:34:54;;;;;;;8.15;3.85;;;0.20;98.00;;;;;;5036918;28;20317;-69
2022/01/08 08:37:20;;;;;;;9.07;5.22;;;0.20;98.00;;;;;;5037640;28;20025;-68
2022/01/08 08:39:51;;;;;;;8.98;5.25;;;0.20;98.00;;;;;;5037433;28;20099;-68
2022/01/08 08:42:17;;;;;;;8.88;4.25;;;0.20;98.00;;;;;;5037809;28;20021;-68
2022/01/08 08:44:42;;;;;;;8.75;5.28;;;0.20;98.00;;;;;;5037320;28;20079;-68
2022/01/08 08:47:11;;;;;;;8.57;4.82;;;0.30;98.00;;;;;;5033955;28;20099;-69
2022/01/08 08:49:39;;;;;;;7.88;4.30;;;0.40;98.00;;;;;;5036791;28;20032;-69
2022/01/08 08:52:04;;;;;;;13.90;7.85;;;0.60;98.00;;;;;;5037412;28;20022;-69
2022/01/08 08:54:33;;;;;;;8.30;4.70;;;0.60;98.00;;;;;;5037049;28;20021;-70
2022/01/08 08:56:59;;;;;;;11.30;6.38;;;0.60;98.00;;;;;;5035751;28;20454;-70
2022/01/08 08:59:25;;;;;;;11.23;6.80;;;0.50;98.00;;;;;;5037031;28;20029;-69
2022/01/08 09:01:51;;;;;;;7.88;4.55;;;0.50;98.00;;;;;;5028308;28;20022;-69
2022/01/08 09:04:17;;;;;;;8.10;4.50;;;0.60;98.00;;;;;;5029230;28;20117;-69
2022/01/08 09:06:45;;;;;;;10.07;5.63;;;0.60;98.00;;;;;;5036392;28;20430;-70
2022/01/08 09:09:11;;;;;;;9.40;4.68;;;0.90;98.00;;;;;;5023200;28;20034;-68
2022/01/08 09:11:40;;;;;;;10.43;5.00;;;1.00;98.00;;;;;;5032131;28;20080;-70
2022/01/08 09:14:06;;;;;;;22.58;10.38;;;0.70;98.00;;;;;;5036556;28;20049;-70
2022/01/08 09:16:34;;;;;;;7.25;4.25;;;0.60;98.00;;;;;;5036870;28;20388;-69
2022/01/08 09:19:00;;;;;;;12.98;7.40;;;0.50;98.00;;;;;;5035102;28;20037;-69
2022/01/08 09:21:27;;;;;;;11.55;6.88;;;0.40;98.00;;;;;;5035556;28;20053;-69
2022/01/08 09:23:53;;;;;;;9.88;4.85;;;0.30;98.00;;;;;;5037073;28;20026;-69
2022/01/08 09:26:19;;;;;;;10.57;6.05;;;0.30;98.00;;;;;;5034613;28;20022;-69
2022/01/08 09:28:45;;;;;;;8.68;5.00;;;0.30;98.00;;;;;;5036475;28;20096;-70
2022/01/08 09:31:11;;;;;;;9.55;5.18;;;0.40;98.00;;;;;;5036659;28;20033;-69
2022/01/08 09:33:37;;;;;;;7.65;4.60;;;0.60;98.00;;;;;;5034985;28;20326;-70
2022/01/08 09:36:04;;;;;;;9.07;4.70;;;0.60;98.00;;;;;;5036360;28;20025;-69
2022/01/08 09:38:29;;;;;;;8.85;3.67;;;0.60;98.00;;;;;;5033509;28;20060;-70
2022/01/08 09:40:55;;;;;;;7.32;4.20;;;0.70;98.00;;;;;;5036076;28;20028;-69
2022/01/08 09:43:21;;;;;;;7.20;4.80;;;0.70;98.00;;;;;;5036860;28;20021;-70
2022/01/08 09:45:47;;;;;;;11.25;4.10;;;0.80;98.00;;;;;;5018648;28;20030;-70
2022/01/08 09:48:13;;;;;;;8.82;4.72;;;0.80;98.00;;;;;;5034932;28;20030;-70
2022/01/08 09:50:44;;;;;;;9.90;3.45;;;0.90;98.00;;;;;;5032367;28;20036;-70
2022/01/08 09:53:09;;;;;;;12.65;3.97;;;1.00;98.00;;;;;;5033277;28;20031;-70
2022/01/08 09:55:35;;;;;;;7.65;3.38;;;1.10;98.00;;;;;;5036269;28;20021;-70
2022/01/08 09:58:02;;;;;;;12.35;4.45;;;0.90;98.00;;;;;;5035282;28;20041;-71
2022/01/08 10:00:35;;;;;;;10.63;3.78;;;0.90;98.00;;;;;;5035947;28;20109;-70
2022/01/08 10:03:33;;;;;;;8.20;3.50;;;1.10;98.00;;;;;;5025581;28;20029;-70
2022/01/08 10:06:00;;;;;;;5.43;2.10;;;1.00;97.90;;;;;;4981478;28;20431;-71
2022/01/08 10:08:31;;;;;;;4.97;2.42;;;0.90;97.80;;;;;;5036042;28;20036;-70
2022/01/08 10:11:00;;;;;;;8.05;2.67;;;0.90;98.00;;;;;;5036595;28;20079;-70
2022/01/08 10:13:32;;;;;;;6.28;3.08;;;0.90;98.00;;;;;;5035866;28;20056;-70
2022/01/08 10:18:45;;;;;;;8.57;3.20;;;0.80;98.00;;;;;;5032967;28;20487;-70
2022/01/08 10:21:23;;;;;;;12.30;5.10;;;0.80;97.30;;;;;;5031279;28;20100;-70
2022/01/08 10:24:00;;;;;;;9.15;4.50;;;0.80;96.90;;;;;;5028683;28;20026;-70
2022/01/08 10:26:32;;;;;;;10.23;3.35;;;0.80;97.10;;;;;;5027687;28;20026;-70
2022/01/08 10:29:00;;;;;;;7.53;3.20;;;0.70;97.10;;;;;;5035504;28;20088;-70
2022/01/08 10:31:46;;;;;;;8.68;3.80;;;0.70;97.50;;;;;;5035601;28;20025;-69
2022/01/08 10:34:19;;;;;;;7.82;2.92;;;0.70;98.00;;;;;;5031635;28;20029;-70
2022/01/08 10:36:47;;;;;;;11.30;4.35;;;0.70;97.80;;;;;;5033866;28;20040;-70
2022/01/08 10:39:27;;;;;;;8.98;4.45;;;0.70;97.90;;;;;;5035095;28;20381;-71
2022/01/08 10:41:53;;;;;;;8.75;4.25;;;0.80;97.60;;;;;;5035592;28;20075;-70
2022/01/08 10:44:24;;;;;;;8.13;3.35;;;0.90;97.70;;;;;;5035890;28;20411;-70
2022/01/08 10:47:08;;;;;;;7.50;2.83;;;0.90;97.20;;;;;;5030962;28;20053;-70
2022/01/08 10:49:36;;;;;;;19.25;7.88;;;0.90;96.90;;;;;;5034715;28;20022;-70
2022/01/08 10:52:05;;;;;;;9.65;4.72;;;1.00;97.60;;;;;;5034911;28;20026;-69
2022/01/08 10:54:34;;;;;;;8.38;3.13;;;1.50;96.50;;;;;;5018823;28;20021;-70
2022/01/08 10:57:02;;;;;;;6.57;3.30;;;1.70;95.80;;;;;;5034534;28;20030;-70
2022/01/08 10:59:30;;;;;;;12.13;3.83;;;1.60;95.20;;;;;;5035129;28;20031;-70
2022/01/08 11:02:03;;;;;;;6.70;2.70;;;1.50;96.00;;;;;;5003586;28;20030;-70
2022/01/08 11:04:53;;;;;;;9.20;3.33;;;1.50;96.80;;;;;;5030543;28;20436;-69
2022/01/08 11:07:26;;;;;;;6.68;3.33;;;1.40;97.10;;;;;;5034779;28;20437;-70
2022/01/08 11:10:04;;;;;;;5.85;2.83;;;1.20;97.50;;;;;;5035522;28;20025;-72
2022/01/08 11:12:38;;;;;;;8.00;3.67;;;1.20;97.20;;;;;;5032513;28;20433;-70
2022/01/08 11:17:44;;;;;;;7.00;3.03;;;1.10;97.60;;;;;;5034184;28;20125;-70
2022/01/08 11:20:14;;;;;;;6.43;2.85;;;1.30;97.70;;;;;;5034529;28;20017;-70
2022/01/08 11:22:43;;;;;;;6.32;2.47;;;1.50;97.10;;;;;;5034519;28;20045;-70
2022/01/08 11:25:14;;;;;;;7.38;3.30;;;1.60;95.90;;;;;;5033736;28;20076;-70
2022/01/08 11:28:09;;;;;;;8.30;4.65;;;1.80;95.90;;;;;;5033611;28;20121;-69
2022/01/08 11:30:41;;;;;;;15.25;7.05;;;2.00;94.70;;;;;;5033995;28;20017;-69
2022/01/08 11:33:14;;;;;;;9.18;3.47;;;2.10;94.30;;;;;;5033702;28;20022;-68
2022/01/08 11:35:41;;;;;;;19.42;8.60;;;2.30;94.20;;;;;;5034880;28;20092;-69
2022/01/08 11:38:09;;;;;;;8.27;3.28;;;2.20;94.20;;;;;;5035486;28;20037;-68
2022/01/08 11:40:41;;;;;;;20.38;8.27;;;2.60;93.50;;;;;;5032158;28;20089;-68
2022/01/08 11:43:08;;;;;;;9.38;2.55;;;3.20;92.50;;;;;;5037565;28;20029;-70
2022/01/08 11:45:47;;;;;;;9.60;2.50;;;4.10;88.90;;;;;;5039219;28;20321;-70
2022/01/08 11:48:16;;;;;;;6.90;2.20;;;3.60;87.80;;;;;;5035583;28;20038;-70
2022/01/08 11:50:58;;;;;;;6.97;2.72;;;3.50;89.90;;;;;;5038173;28;20103;-70
2022/01/08 11:53:25;;;;;;;6.68;3.10;;;3.20;89.20;;;;;;5037098;28;20038;-69
2022/01/08 11:55:55;;;;;;;5.80;2.03;;;3.30;90.20;;;;;;5037989;28;20033;-70
2022/01/08 11:58:23;;;;;;;6.78;2.40;;;3.20;89.50;;;;;;5028679;28;20040;-70
2022/01/08 12:01:06;;;;;;;5.70;2.30;;;3.50;89.30;;;;;;5038746;28;20027;-70
2022/01/08 12:03:33;;;;;;;5.80;2.13;;;3.70;87.60;;;;;;5037186;28;20419;-70
2022/01/08 12:06:20;;;;;;;6.75;3.95;;;3.30;88.40;;;;;;5037526;28;20029;-70
2022/01/08 12:09:16;;;;;;;13.02;5.93;;;3.00;89.60;;;;;;5037541;28;20117;-70
2022/01/08 12:11:42;;;;;;;6.20;2.47;;;3.10;90.00;;;;;;5038036;28;20034;-69
2022/01/08 12:14:19;;;;;;;7.07;4.25;;;2.80;88.30;;;;;;5020939;28;20040;-70
2022/01/08 12:16:49;;;;;;;10.77;7.60;;;2.80;89.30;;;;;;5038329;28;20045;-70
2022/01/08 12:19:37;;;;;;;4.78;2.10;;;2.90;88.70;;;;;;5035716;28;20104;-69
2022/01/08 12:22:20;;;;;;;4.88;2.13;;;2.80;87.80;;;;;;5019749;28;20092;-70
2022/01/08 12:24:55;;;;;;;8.23;4.38;;;2.60;87.50;;;;;;5020837;28;20308;-70
2022/01/08 12:27:33;;;;;;;9.23;4.65;;;2.60;88.20;;;;;;5037766;28;20040;-70
2022/01/08 12:30:00;;;;;;;4.00;1.85;;;2.80;88.30;;;;;;5020238;28;20036;-71
2022/01/08 12:32:36;;;;;;;4.40;1.88;;;2.80;86.90;;;;;;5036734;28;20013;-70
2022/01/08 12:35:18;;;;;;;5.43;2.17;;;2.70;87.00;;;;;;5037448;28;20426;-71
2022/01/08 12:37:55;;;;;;;4.75;1.92;;;2.70;87.60;;;;;;5037287;28;20029;-71
2022/01/08 12:40:51;;;;;;;6.22;2.28;;;2.40;87.90;;;;;;5037023;28;20030;-71
2022/01/08 12:43:34;;;;;;;5.18;2.53;;;2.20;88.60;;;;;;5037840;28;20385;-71
2022/01/08 12:46:37;;;;;;;6.38;2.00;;;2.10;89.20;;;;;;5037021;28;20327;-70
2022/01/08 12:49:10;;;;;;;4.28;1.75;;;2.30;88.80;;;;;;5036315;28;20083;-71
2022/01/08 12:51:48;;;;;;;4.05;1.80;;;2.40;88.40;;;;;;5037705;28;20018;-70
2022/01/08 12:54:16;;;;;;;5.40;1.98;;;2.40;88.90;;;;;;5019410;28;20087;-70
2022/01/08 12:56:49;;;;;;;4.95;1.92;;;2.40;87.60;;;;;;5037660;28;20473;-71
2022/01/08 12:59:16;;;;;;;3.92;1.73;;;2.30;87.80;;;;;;5036138;28;20025;-71
2022/01/08 13:01:49;;;;;;;3.97;2.10;;;2.20;87.50;;;;;;5037121;28;20029;-70
2022/01/08 13:04:17;;;;;;;3.25;1.77;;;2.20;88.20;;;;;;5036261;28;20100;-70
2022/01/08 13:06:45;;;;;;;5.55;1.92;;;2.20;88.00;;;;;;5020510;28;20043;-70
2022/01/08 13:09:11;;;;;;;9.05;3.15;;;2.20;87.90;;;;;;5020005;28;20414;-70
2022/01/08 13:11:39;;;;;;;4.65;2.25;;;2.30;88.30;;;;;;5037220;28;20041;-70
2022/01/08 13:14:16;;;;;;;6.03;2.47;;;2.30;88.00;;;;;;5037105;28;20026;-70
2022/01/08 13:16:45;;;;;;;5.35;2.60;;;2.40;87.60;;;;;;5037659;28;20108;-69
2022/01/08 13:19:19;;;;;;;5.18;2.60;;;2.30;88.50;;;;;;5035037;28;20013;-70
2022/01/08 13:21:56;;;;;;;4.53;1.80;;;2.40;88.60;;;;;;5036513;28;20132;-69
2022/01/08 13:24:24;;;;;;;5.82;2.60;;;2.40;88.50;;;;;;5031845;28;20038;-70
2022/01/08 13:26:59;;;;;;;8.10;2.88;;;2.30;88.50;;;;;;5017555;28;20426;-69